Terminal Aerodrome Forecast
Issued by NWS Billings, MT

Home | Current Version | Previous Version | Text Only | Print | Product List | Glossary On
Versions: 1 2 3 4 5 6 7 8 9 10 11 12 13 14 15 16 17 18 19 20 21 22 23 24 25 26 27 28
399
FTUS45 KBYZ 202329
TAFBIL
TAF
KBIL 202329Z 2100/2124 24010KT P6SM SCT120
     FM210600 23009KT P6SM FEW010 SCT120=

USA.gov is the U.S. government's official web portal to all federal, state and local government web resources and services.